sensor_id;sensor_type;location;lat;lon;timestamp;P1;durP1;ratioP1;P2;durP2;ratioP2
29358;SDS011;16347;53.232;6.556;2023-09-08T00:01:20;9.30;;;5.40;;
29358;SDS011;16347;53.232;6.556;2023-09-08T00:03:48;10.88;;;5.70;;
29358;SDS011;16347;53.232;6.556;2023-09-08T00:06:16;8.48;;;5.55;;
29358;SDS011;16347;53.232;6.556;2023-09-08T00:08:44;6.53;;;4.82;;
29358;SDS011;16347;53.232;6.556;2023-09-08T00:11:12;10.65;;;5.80;;
29358;SDS011;16347;53.232;6.556;2023-09-08T00:13:40;7.90;;;5.47;;
29358;SDS011;16347;53.232;6.556;2023-09-08T00:16:08;8.02;;;5.30;;
29358;SDS011;16347;53.232;6.556;2023-09-08T00:18:37;7.78;;;5.68;;
29358;SDS011;16347;53.232;6.556;2023-09-08T00:21:05;9.52;;;5.65;;
29358;SDS011;16347;53.232;6.556;2023-09-08T00:23:33;7.97;;;4.90;;
29358;SDS011;16347;53.232;6.556;2023-09-08T00:26:01;11.98;;;5.05;;
29358;SDS011;16347;53.232;6.556;2023-09-08T00:28:29;8.40;;;5.65;;
29358;SDS011;16347;53.232;6.556;2023-09-08T00:30:57;11.13;;;6.00;;
29358;SDS011;16347;53.232;6.556;2023-09-08T00:33:26;8.45;;;5.18;;
29358;SDS011;16347;53.232;6.556;2023-09-08T00:35:55;10.75;;;5.68;;
29358;SDS011;16347;53.232;6.556;2023-09-08T00:38:24;8.50;;;4.95;;
29358;SDS011;16347;53.232;6.556;2023-09-08T00:40:52;11.65;;;6.00;;
29358;SDS011;16347;53.232;6.556;2023-09-08T00:43:20;8.48;;;5.40;;
29358;SDS011;16347;53.232;6.556;2023-09-08T00:45:48;9.30;;;5.20;;
29358;SDS011;16347;53.232;6.556;2023-09-08T00:48:16;11.18;;;6.10;;
29358;SDS011;16347;53.232;6.556;2023-09-08T00:50:45;11.70;;;5.65;;
29358;SDS011;16347;53.232;6.556;2023-09-08T00:53:17;8.43;;;5.65;;
29358;SDS011;16347;53.232;6.556;2023-09-08T00:55:45;9.40;;;6.15;;
29358;SDS011;16347;53.232;6.556;2023-09-08T00:58:13;12.38;;;6.50;;
29358;SDS011;16347;53.232;6.556;2023-09-08T01:00:41;8.35;;;6.30;;
29358;SDS011;16347;53.232;6.556;2023-09-08T01:03:11;8.65;;;5.30;;
29358;SDS011;16347;53.232;6.556;2023-09-08T01:05:39;9.43;;;5.30;;
29358;SDS011;16347;53.232;6.556;2023-09-08T01:08:07;15.05;;;5.60;;
29358;SDS011;16347;53.232;6.556;2023-09-08T01:10:37;7.47;;;5.78;;
29358;SDS011;16347;53.232;6.556;2023-09-08T01:13:05;10.60;;;6.68;;
29358;SDS011;16347;53.232;6.556;2023-09-08T01:15:33;9.35;;;5.82;;
29358;SDS011;16347;53.232;6.556;2023-09-08T01:18:01;10.48;;;6.07;;
29358;SDS011;16347;53.232;6.556;2023-09-08T01:20:30;10.30;;;5.45;;
29358;SDS011;16347;53.232;6.556;2023-09-08T01:23:05;7.55;;;5.65;;
29358;SDS011;16347;53.232;6.556;2023-09-08T01:25:46;8.63;;;5.78;;
29358;SDS011;16347;53.232;6.556;2023-09-08T01:28:20;9.63;;;5.88;;
29358;SDS011;16347;53.232;6.556;2023-09-08T01:30:50;10.13;;;5.70;;
29358;SDS011;16347;53.232;6.556;2023-09-08T01:33:19;9.55;;;6.07;;
29358;SDS011;16347;53.232;6.556;2023-09-08T01:35:47;8.38;;;5.57;;
29358;SDS011;16347;53.232;6.556;2023-09-08T01:38:16;10.07;;;6.35;;
29358;SDS011;16347;53.232;6.556;2023-09-08T01:40:44;7.47;;;5.22;;
29358;SDS011;16347;53.232;6.556;2023-09-08T01:43:13;7.82;;;4.95;;
29358;SDS011;16347;53.232;6.556;2023-09-08T01:45:41;9.57;;;5.80;;
29358;SDS011;16347;53.232;6.556;2023-09-08T01:48:09;9.20;;;6.00;;
29358;SDS011;16347;53.232;6.556;2023-09-08T01:50:37;6.70;;;5.00;;
29358;SDS011;16347;53.232;6.556;2023-09-08T01:53:05;10.77;;;6.30;;
29358;SDS011;16347;53.232;6.556;2023-09-08T01:55:32;9.30;;;5.80;;
29358;SDS011;16347;53.232;6.556;2023-09-08T01:58:00;10.45;;;6.25;;
29358;SDS011;16347;53.232;6.556;2023-09-08T02:00:30;10.30;;;5.75;;
29358;SDS011;16347;53.232;6.556;2023-09-08T02:02:58;10.48;;;5.13;;
29358;SDS011;16347;53.232;6.556;2023-09-08T02:05:27;14.40;;;6.50;;
29358;SDS011;16347;53.232;6.556;2023-09-08T02:07:55;9.60;;;6.03;;
29358;SDS011;16347;53.232;6.556;2023-09-08T02:10:23;8.32;;;5.22;;
29358;SDS011;16347;53.232;6.556;2023-09-08T02:12:52;7.03;;;5.18;;
29358;SDS011;16347;53.232;6.556;2023-09-08T02:15:19;8.40;;;5.50;;
29358;SDS011;16347;53.232;6.556;2023-09-08T02:17:50;9.70;;;4.88;;
29358;SDS011;16347;53.232;6.556;2023-09-08T02:20:20;7.70;;;5.40;;
29358;SDS011;16347;53.232;6.556;2023-09-08T02:22:49;11.75;;;5.88;;
29358;SDS011;16347;53.232;6.556;2023-09-08T02:25:17;8.50;;;5.68;;
29358;SDS011;16347;53.232;6.556;2023-09-08T02:27:45;8.88;;;5.53;;
29358;SDS011;16347;53.232;6.556;2023-09-08T02:30:13;8.10;;;5.05;;
29358;SDS011;16347;53.232;6.556;2023-09-08T02:32:42;9.70;;;5.35;;
29358;SDS011;16347;53.232;6.556;2023-09-08T02:35:13;10.43;;;5.53;;
29358;SDS011;16347;53.232;6.556;2023-09-08T02:37:41;11.18;;;6.20;;
29358;SDS011;16347;53.232;6.556;2023-09-08T02:40:09;8.48;;;5.78;;
29358;SDS011;16347;53.232;6.556;2023-09-08T02:42:38;8.80;;;6.13;;
29358;SDS011;16347;53.232;6.556;2023-09-08T02:45:06;8.07;;;5.57;;
29358;SDS011;16347;53.232;6.556;2023-09-08T02:47:35;8.45;;;5.90;;
29358;SDS011;16347;53.232;6.556;2023-09-08T02:50:03;9.27;;;5.93;;
29358;SDS011;16347;53.232;6.556;2023-09-08T02:52:33;11.20;;;6.22;;
29358;SDS011;16347;53.232;6.556;2023-09-08T02:55:01;7.82;;;5.82;;
29358;SDS011;16347;53.232;6.556;2023-09-08T02:57:30;8.15;;;5.68;;
29358;SDS011;16347;53.232;6.556;2023-09-08T02:59:59;10.77;;;6.70;;
29358;SDS011;16347;53.232;6.556;2023-09-08T03:02:27;7.72;;;5.55;;
29358;SDS011;16347;53.232;6.556;2023-09-08T03:04:55;8.13;;;5.75;;
29358;SDS011;16347;53.232;6.556;2023-09-08T03:07:23;8.13;;;5.88;;
29358;SDS011;16347;53.232;6.556;2023-09-08T03:09:52;15.25;;;5.55;;
29358;SDS011;16347;53.232;6.556;2023-09-08T03:12:21;7.00;;;5.38;;
29358;SDS011;16347;53.232;6.556;2023-09-08T03:14:48;12.80;;;6.15;;
29358;SDS011;16347;53.232;6.556;2023-09-08T03:17:16;12.23;;;6.65;;
29358;SDS011;16347;53.232;6.556;2023-09-08T03:19:45;9.30;;;5.90;;
29358;SDS011;16347;53.232;6.556;2023-09-08T03:22:13;10.88;;;6.00;;
29358;SDS011;16347;53.232;6.556;2023-09-08T03:24:41;9.60;;;6.13;;
29358;SDS011;16347;53.232;6.556;2023-09-08T03:27:10;7.63;;;5.43;;
29358;SDS011;16347;53.232;6.556;2023-09-08T03:29:38;8.48;;;6.45;;
29358;SDS011;16347;53.232;6.556;2023-09-08T03:32:06;7.35;;;5.32;;
29358;SDS011;16347;53.232;6.556;2023-09-08T03:34:34;10.38;;;6.68;;
29358;SDS011;16347;53.232;6.556;2023-09-08T03:37:06;9.70;;;5.22;;
29358;SDS011;16347;53.232;6.556;2023-09-08T03:39:34;15.20;;;5.85;;
29358;SDS011;16347;53.232;6.556;2023-09-08T03:42:03;11.63;;;5.97;;
29358;SDS011;16347;53.232;6.556;2023-09-08T03:44:32;14.73;;;5.82;;
29358;SDS011;16347;53.232;6.556;2023-09-08T03:47:00;9.55;;;6.63;;
29358;SDS011;16347;53.232;6.556;2023-09-08T03:49:30;8.57;;;6.88;;
29358;SDS011;16347;53.232;6.556;2023-09-08T03:51:58;9.32;;;5.57;;
29358;SDS011;16347;53.232;6.556;2023-09-08T03:54:26;9.13;;;6.07;;
29358;SDS011;16347;53.232;6.556;2023-09-08T03:56:54;15.82;;;6.57;;
29358;SDS011;16347;53.232;6.556;2023-09-08T03:59:22;7.97;;;6.18;;
29358;SDS011;16347;53.232;6.556;2023-09-08T04:01:51;8.95;;;6.07;;
29358;SDS011;16347;53.232;6.556;2023-09-08T04:04:19;7.93;;;5.70;;
29358;SDS011;16347;53.232;6.556;2023-09-08T04:06:47;9.68;;;6.20;;
29358;SDS011;16347;53.232;6.556;2023-09-08T04:09:15;9.52;;;6.13;;
29358;SDS011;16347;53.232;6.556;2023-09-08T04:11:43;11.25;;;6.68;;
29358;SDS011;16347;53.232;6.556;2023-09-08T04:14:11;8.40;;;6.57;;
29358;SDS011;16347;53.232;6.556;2023-09-08T04:16:38;10.98;;;7.22;;
29358;SDS011;16347;53.232;6.556;2023-09-08T04:19:07;7.88;;;5.82;;
29358;SDS011;16347;53.232;6.556;2023-09-08T04:21:35;10.77;;;6.32;;
29358;SDS011;16347;53.232;6.556;2023-09-08T04:24:04;12.75;;;7.82;;
29358;SDS011;16347;53.232;6.556;2023-09-08T04:26:33;14.57;;;6.93;;
29358;SDS011;16347;53.232;6.556;2023-09-08T04:29:01;10.43;;;6.53;;
29358;SDS011;16347;53.232;6.556;2023-09-08T04:31:29;10.75;;;6.10;;
29358;SDS011;16347;53.232;6.556;2023-09-08T04:33:57;9.02;;;5.72;;
29358;SDS011;16347;53.232;6.556;2023-09-08T04:36:26;9.25;;;6.22;;
29358;SDS011;16347;53.232;6.556;2023-09-08T04:38:56;10.88;;;7.13;;
29358;SDS011;16347;53.232;6.556;2023-09-08T04:41:24;14.23;;;6.85;;
29358;SDS011;16347;53.232;6.556;2023-09-08T04:43:52;11.75;;;6.95;;
29358;SDS011;16347;53.232;6.556;2023-09-08T04:46:20;10.15;;;6.95;;
29358;SDS011;16347;53.232;6.556;2023-09-08T04:48:48;11.80;;;6.88;;
29358;SDS011;16347;53.232;6.556;2023-09-08T04:51:16;13.63;;;7.03;;
29358;SDS011;16347;53.232;6.556;2023-09-08T04:53:46;14.50;;;6.88;;
29358;SDS011;16347;53.232;6.556;2023-09-08T04:56:14;10.90;;;6.43;;
29358;SDS011;16347;53.232;6.556;2023-09-08T04:58:42;12.65;;;7.38;;
29358;SDS011;16347;53.232;6.556;2023-09-08T05:01:11;10.45;;;6.22;;
29358;SDS011;16347;53.232;6.556;2023-09-08T05:03:39;8.38;;;5.60;;
29358;SDS011;16347;53.232;6.556;2023-09-08T05:06:07;17.30;;;6.47;;
29358;SDS011;16347;53.232;6.556;2023-09-08T05:08:35;9.88;;;6.60;;
29358;SDS011;16347;53.232;6.556;2023-09-08T05:11:05;11.57;;;6.40;;
29358;SDS011;16347;53.232;6.556;2023-09-08T05:13:33;19.30;;;7.00;;
29358;SDS011;16347;53.232;6.556;2023-09-08T05:16:02;14.27;;;6.53;;
29358;SDS011;16347;53.232;6.556;2023-09-08T05:18:42;12.55;;;6.72;;
29358;SDS011;16347;53.232;6.556;2023-09-08T05:21:11;8.32;;;5.50;;
29358;SDS011;16347;53.232;6.556;2023-09-08T05:23:40;9.65;;;6.38;;
29358;SDS011;16347;53.232;6.556;2023-09-08T05:26:11;91.30;;;11.77;;
29358;SDS011;16347;53.232;6.556;2023-09-08T05:28:39;16.65;;;7.25;;
29358;SDS011;16347;53.232;6.556;2023-09-08T05:31:09;15.70;;;7.28;;
29358;SDS011;16347;53.232;6.556;2023-09-08T05:33:38;16.92;;;7.03;;
29358;SDS011;16347;53.232;6.556;2023-09-08T05:36:06;13.15;;;7.10;;
29358;SDS011;16347;53.232;6.556;2023-09-08T05:38:34;14.57;;;7.18;;
29358;SDS011;16347;53.232;6.556;2023-09-08T05:41:02;17.48;;;6.80;;
29358;SDS011;16347;53.232;6.556;2023-09-08T05:43:32;13.88;;;7.95;;
29358;SDS011;16347;53.232;6.556;2023-09-08T05:46:00;12.20;;;7.35;;
29358;SDS011;16347;53.232;6.556;2023-09-08T05:48:28;12.23;;;7.47;;
29358;SDS011;16347;53.232;6.556;2023-09-08T05:50:57;12.63;;;8.32;;
29358;SDS011;16347;53.232;6.556;2023-09-08T05:53:25;8.82;;;5.80;;
29358;SDS011;16347;53.232;6.556;2023-09-08T05:55:54;19.70;;;8.50;;
29358;SDS011;16347;53.232;6.556;2023-09-08T05:58:22;16.48;;;7.30;;
29358;SDS011;16347;53.232;6.556;2023-09-08T06:00:54;10.05;;;6.95;;
29358;SDS011;16347;53.232;6.556;2023-09-08T06:03:23;12.85;;;6.85;;
29358;SDS011;16347;53.232;6.556;2023-09-08T06:05:51;11.05;;;6.80;;
29358;SDS011;16347;53.232;6.556;2023-09-08T06:08:20;11.57;;;7.00;;
29358;SDS011;16347;53.232;6.556;2023-09-08T06:10:48;15.68;;;7.57;;
29358;SDS011;16347;53.232;6.556;2023-09-08T06:13:16;10.85;;;7.40;;
29358;SDS011;16347;53.232;6.556;2023-09-08T06:15:44;12.52;;;7.00;;
29358;SDS011;16347;53.232;6.556;2023-09-08T06:18:14;11.93;;;7.82;;
29358;SDS011;16347;53.232;6.556;2023-09-08T06:20:46;14.48;;;7.53;;
29358;SDS011;16347;53.232;6.556;2023-09-08T06:23:16;10.48;;;7.35;;
29358;SDS011;16347;53.232;6.556;2023-09-08T06:25:48;15.65;;;8.93;;
29358;SDS011;16347;53.232;6.556;2023-09-08T06:28:18;19.23;;;8.18;;
29358;SDS011;16347;53.232;6.556;2023-09-08T06:30:46;11.75;;;5.60;;
29358;SDS011;16347;53.232;6.556;2023-09-08T06:33:15;8.73;;;5.40;;
29358;SDS011;16347;53.232;6.556;2023-09-08T06:35:43;11.23;;;5.53;;
29358;SDS011;16347;53.232;6.556;2023-09-08T06:38:11;9.40;;;5.13;;
29358;SDS011;16347;53.232;6.556;2023-09-08T06:40:39;5.15;;;4.60;;
29358;SDS011;16347;53.232;6.556;2023-09-08T06:43:07;6.85;;;4.93;;
29358;SDS011;16347;53.232;6.556;2023-09-08T06:45:43;7.20;;;4.45;;
29358;SDS011;16347;53.232;6.556;2023-09-08T06:48:14;9.30;;;4.68;;
29358;SDS011;16347;53.232;6.556;2023-09-08T06:50:43;8.77;;;5.57;;
29358;SDS011;16347;53.232;6.556;2023-09-08T06:53:11;9.15;;;6.85;;
29358;SDS011;16347;53.232;6.556;2023-09-08T06:55:40;14.80;;;9.60;;
29358;SDS011;16347;53.232;6.556;2023-09-08T06:58:11;19.02;;;12.05;;
29358;SDS011;16347;53.232;6.556;2023-09-08T07:00:41;25.92;;;15.32;;
29358;SDS011;16347;53.232;6.556;2023-09-08T07:03:09;29.33;;;18.50;;
29358;SDS011;16347;53.232;6.556;2023-09-08T07:05:39;39.83;;;23.88;;
29358;SDS011;16347;53.232;6.556;2023-09-08T07:08:08;43.80;;;25.67;;
29358;SDS011;16347;53.232;6.556;2023-09-08T07:10:35;50.40;;;28.05;;
29358;SDS011;16347;53.232;6.556;2023-09-08T07:13:04;45.70;;;28.23;;
29358;SDS011;16347;53.232;6.556;2023-09-08T07:15:32;47.13;;;29.48;;
29358;SDS011;16347;53.232;6.556;2023-09-08T07:18:00;53.55;;;32.10;;
29358;SDS011;16347;53.232;6.556;2023-09-08T07:20:31;61.00;;;35.78;;
29358;SDS011;16347;53.232;6.556;2023-09-08T07:23:02;62.80;;;35.90;;
29358;SDS011;16347;53.232;6.556;2023-09-08T07:25:30;73.47;;;41.35;;
29358;SDS011;16347;53.232;6.556;2023-09-08T07:27:58;72.13;;;42.47;;
29358;SDS011;16347;53.232;6.556;2023-09-08T07:30:27;83.15;;;47.97;;
29358;SDS011;16347;53.232;6.556;2023-09-08T07:32:55;94.78;;;54.58;;
29358;SDS011;16347;53.232;6.556;2023-09-08T07:35:24;114.18;;;64.65;;
29358;SDS011;16347;53.232;6.556;2023-09-08T07:37:52;116.25;;;67.22;;
29358;SDS011;16347;53.232;6.556;2023-09-08T07:40:22;117.55;;;68.25;;
29358;SDS011;16347;53.232;6.556;2023-09-08T07:42:51;114.18;;;67.80;;
29358;SDS011;16347;53.232;6.556;2023-09-08T07:45:18;121.97;;;68.40;;
29358;SDS011;16347;53.232;6.556;2023-09-08T07:47:46;103.93;;;59.05;;
29358;SDS011;16347;53.232;6.556;2023-09-08T07:50:18;84.50;;;49.88;;
29358;SDS011;16347;53.232;6.556;2023-09-08T07:52:49;85.68;;;50.63;;
29358;SDS011;16347;53.232;6.556;2023-09-08T07:55:17;97.15;;;56.78;;
29358;SDS011;16347;53.232;6.556;2023-09-08T07:57:47;101.90;;;56.75;;
29358;SDS011;16347;53.232;6.556;2023-09-08T08:00:15;66.30;;;38.92;;
29358;SDS011;16347;53.232;6.556;2023-09-08T08:02:45;71.82;;;43.80;;
29358;SDS011;16347;53.232;6.556;2023-09-08T08:05:14;24.75;;;14.73;;
29358;SDS011;16347;53.232;6.556;2023-09-08T08:07:43;13.30;;;7.57;;
29358;SDS011;16347;53.232;6.556;2023-09-08T08:10:11;34.53;;;20.75;;
29358;SDS011;16347;53.232;6.556;2023-09-08T08:12:40;40.40;;;22.50;;
29358;SDS011;16347;53.232;6.556;2023-09-08T08:15:10;33.22;;;20.90;;
29358;SDS011;16347;53.232;6.556;2023-09-08T08:17:39;44.30;;;26.05;;
29358;SDS011;16347;53.232;6.556;2023-09-08T08:20:08;57.92;;;33.85;;
29358;SDS011;16347;53.232;6.556;2023-09-08T08:22:43;76.80;;;45.13;;
29358;SDS011;16347;53.232;6.556;2023-09-08T08:25:12;82.57;;;46.20;;
29358;SDS011;16347;53.232;6.556;2023-09-08T08:27:40;66.30;;;39.25;;
29358;SDS011;16347;53.232;6.556;2023-09-08T08:30:09;39.95;;;22.45;;
29358;SDS011;16347;53.232;6.556;2023-09-08T08:32:38;24.58;;;15.35;;
29358;SDS011;16347;53.232;6.556;2023-09-08T08:35:07;19.02;;;11.52;;
29358;SDS011;16347;53.232;6.556;2023-09-08T08:37:35;11.15;;;6.88;;
29358;SDS011;16347;53.232;6.556;2023-09-08T08:40:03;37.05;;;22.60;;
29358;SDS011;16347;53.232;6.556;2023-09-08T08:42:33;22.08;;;12.27;;
29358;SDS011;16347;53.232;6.556;2023-09-08T08:45:01;39.67;;;23.05;;
29358;SDS011;16347;53.232;6.556;2023-09-08T08:47:31;43.33;;;25.67;;
29358;SDS011;16347;53.232;6.556;2023-09-08T08:50:00;46.15;;;26.25;;
29358;SDS011;16347;53.232;6.556;2023-09-08T08:52:29;53.45;;;28.90;;
29358;SDS011;16347;53.232;6.556;2023-09-08T08:54:57;44.03;;;26.15;;
29358;SDS011;16347;53.232;6.556;2023-09-08T08:57:25;30.00;;;15.98;;
29358;SDS011;16347;53.232;6.556;2023-09-08T08:59:54;18.85;;;12.15;;
29358;SDS011;16347;53.232;6.556;2023-09-08T09:02:22;43.15;;;24.90;;
29358;SDS011;16347;53.232;6.556;2023-09-08T09:04:56;32.53;;;20.10;;
29358;SDS011;16347;53.232;6.556;2023-09-08T09:07:25;13.80;;;8.45;;
29358;SDS011;16347;53.232;6.556;2023-09-08T09:09:54;31.63;;;17.85;;
29358;SDS011;16347;53.232;6.556;2023-09-08T09:12:22;20.77;;;12.40;;
29358;SDS011;16347;53.232;6.556;2023-09-08T09:14:52;18.90;;;9.52;;
29358;SDS011;16347;53.232;6.556;2023-09-08T09:17:21;31.92;;;17.60;;
29358;SDS011;16347;53.232;6.556;2023-09-08T09:19:47;17.55;;;10.15;;
29358;SDS011;16347;53.232;6.556;2023-09-08T09:22:20;15.02;;;9.90;;
29358;SDS011;16347;53.232;6.556;2023-09-08T09:24:48;13.00;;;6.07;;
29358;SDS011;16347;53.232;6.556;2023-09-08T09:27:16;8.82;;;5.13;;
29358;SDS011;16347;53.232;6.556;2023-09-08T09:29:45;14.05;;;7.82;;
29358;SDS011;16347;53.232;6.556;2023-09-08T09:32:14;11.77;;;7.18;;
29358;SDS011;16347;53.232;6.556;2023-09-08T09:34:47;18.75;;;9.93;;
29358;SDS011;16347;53.232;6.556;2023-09-08T09:37:16;16.23;;;8.90;;
29358;SDS011;16347;53.232;6.556;2023-09-08T09:39:49;25.95;;;16.52;;
29358;SDS011;16347;53.232;6.556;2023-09-08T09:42:17;31.77;;;20.35;;
29358;SDS011;16347;53.232;6.556;2023-09-08T09:44:46;23.30;;;13.98;;
29358;SDS011;16347;53.232;6.556;2023-09-08T09:47:15;26.15;;;11.73;;
29358;SDS011;16347;53.232;6.556;2023-09-08T09:49:44;11.02;;;6.85;;
29358;SDS011;16347;53.232;6.556;2023-09-08T09:52:13;6.65;;;4.93;;
29358;SDS011;16347;53.232;6.556;2023-09-08T09:54:42;13.43;;;7.78;;
29358;SDS011;16347;53.232;6.556;2023-09-08T09:57:13;36.63;;;22.90;;
29358;SDS011;16347;53.232;6.556;2023-09-08T09:59:41;17.55;;;11.35;;
29358;SDS011;16347;53.232;6.556;2023-09-08T10:02:13;16.80;;;9.57;;
29358;SDS011;16347;53.232;6.556;2023-09-08T10:04:42;10.20;;;6.47;;
29358;SDS011;16347;53.232;6.556;2023-09-08T10:07:10;7.63;;;4.70;;
29358;SDS011;16347;53.232;6.556;2023-09-08T10:09:38;7.85;;;5.05;;
29358;SDS011;16347;53.232;6.556;2023-09-08T10:12:06;14.32;;;8.93;;
29358;SDS011;16347;53.232;6.556;2023-09-08T10:14:39;17.15;;;9.50;;
29358;SDS011;16347;53.232;6.556;2023-09-08T10:17:09;16.00;;;8.55;;
29358;SDS011;16347;53.232;6.556;2023-09-08T10:19:43;10.45;;;5.53;;
29358;SDS011;16347;53.232;6.556;2023-09-08T10:22:19;12.25;;;7.55;;
29358;SDS011;16347;53.232;6.556;2023-09-08T10:24:49;15.27;;;9.18;;
29358;SDS011;16347;53.232;6.556;2023-09-08T10:27:18;28.83;;;17.50;;
29358;SDS011;16347;53.232;6.556;2023-09-08T10:29:49;18.92;;;11.98;;
29358;SDS011;16347;53.232;6.556;2023-09-08T10:32:17;16.05;;;10.07;;
29358;SDS011;16347;53.232;6.556;2023-09-08T10:34:47;10.70;;;7.30;;
29358;SDS011;16347;53.232;6.556;2023-09-08T10:37:20;28.88;;;16.25;;
29358;SDS011;16347;53.232;6.556;2023-09-08T10:39:51;13.00;;;8.88;;
29358;SDS011;16347;53.232;6.556;2023-09-08T10:42:19;15.65;;;7.35;;
29358;SDS011;16347;53.232;6.556;2023-09-08T10:44:57;22.48;;;13.10;;
29358;SDS011;16347;53.232;6.556;2023-09-08T10:47:30;25.00;;;12.50;;
29358;SDS011;16347;53.232;6.556;2023-09-08T10:50:01;12.07;;;7.85;;
29358;SDS011;16347;53.232;6.556;2023-09-08T10:52:30;12.02;;;8.32;;
29358;SDS011;16347;53.232;6.556;2023-09-08T10:54:59;24.38;;;12.88;;
29358;SDS011;16347;53.232;6.556;2023-09-08T10:57:28;12.23;;;7.60;;
29358;SDS011;16347;53.232;6.556;2023-09-08T11:00:00;7.88;;;5.47;;
29358;SDS011;16347;53.232;6.556;2023-09-08T11:02:32;10.00;;;5.93;;
29358;SDS011;16347;53.232;6.556;2023-09-08T11:05:01;11.52;;;6.88;;
29358;SDS011;16347;53.232;6.556;2023-09-08T11:07:31;11.15;;;6.50;;
29358;SDS011;16347;53.232;6.556;2023-09-08T11:10:00;11.90;;;7.07;;
29358;SDS011;16347;53.232;6.556;2023-09-08T11:12:28;8.38;;;5.15;;
29358;SDS011;16347;53.232;6.556;2023-09-08T11:14:56;12.02;;;4.80;;
29358;SDS011;16347;53.232;6.556;2023-09-08T11:17:28;11.73;;;4.53;;
29358;SDS011;16347;53.232;6.556;2023-09-08T11:19:56;9.43;;;4.18;;
29358;SDS011;16347;53.232;6.556;2023-09-08T11:22:24;20.45;;;8.02;;
29358;SDS011;16347;53.232;6.556;2023-09-08T11:24:53;18.00;;;5.72;;
29358;SDS011;16347;53.232;6.556;2023-09-08T11:27:23;6.95;;;4.07;;
29358;SDS011;16347;53.232;6.556;2023-09-08T11:29:51;11.05;;;4.47;;
29358;SDS011;16347;53.232;6.556;2023-09-08T11:32:19;9.73;;;4.82;;
29358;SDS011;16347;53.232;6.556;2023-09-08T11:34:48;9.10;;;4.00;;
29358;SDS011;16347;53.232;6.556;2023-09-08T11:37:16;7.40;;;4.05;;
29358;SDS011;16347;53.232;6.556;2023-09-08T11:39:45;6.57;;;4.25;;
29358;SDS011;16347;53.232;6.556;2023-09-08T11:42:14;9.20;;;4.05;;
29358;SDS011;16347;53.232;6.556;2023-09-08T11:44:43;7.88;;;4.40;;
29358;SDS011;16347;53.232;6.556;2023-09-08T11:47:10;8.98;;;4.47;;
29358;SDS011;16347;53.232;6.556;2023-09-08T11:49:40;8.25;;;4.82;;
29358;SDS011;16347;53.232;6.556;2023-09-08T11:52:11;17.10;;;8.48;;
29358;SDS011;16347;53.232;6.556;2023-09-08T11:54:39;12.07;;;7.45;;
29358;SDS011;16347;53.232;6.556;2023-09-08T11:57:29;23.55;;;13.70;;
29358;SDS011;16347;53.232;6.556;2023-09-08T11:59:58;21.85;;;13.70;;
29358;SDS011;16347;53.232;6.556;2023-09-08T12:05:02;24.63;;;13.95;;
29358;SDS011;16347;53.232;6.556;2023-09-08T12:07:31;13.20;;;8.50;;
29358;SDS011;16347;53.232;6.556;2023-09-08T12:09:59;18.33;;;8.43;;
29358;SDS011;16347;53.232;6.556;2023-09-08T12:12:41;11.57;;;6.60;;
29358;SDS011;16347;53.232;6.556;2023-09-08T12:15:09;21.63;;;12.55;;
29358;SDS011;16347;53.232;6.556;2023-09-08T12:17:47;20.45;;;11.80;;
29358;SDS011;16347;53.232;6.556;2023-09-08T12:20:16;9.50;;;6.10;;
29358;SDS011;16347;53.232;6.556;2023-09-08T12:22:49;8.90;;;4.88;;
29358;SDS011;16347;53.232;6.556;2023-09-08T12:25:17;5.75;;;4.10;;
29358;SDS011;16347;53.232;6.556;2023-09-08T12:27:46;10.27;;;4.57;;
29358;SDS011;16347;53.232;6.556;2023-09-08T12:30:18;10.02;;;6.22;;
29358;SDS011;16347;53.232;6.556;2023-09-08T12:32:47;7.68;;;4.20;;
29358;SDS011;16347;53.232;6.556;2023-09-08T12:35:19;8.15;;;4.25;;
29358;SDS011;16347;53.232;6.556;2023-09-08T12:37:59;7.75;;;4.50;;
29358;SDS011;16347;53.232;6.556;2023-09-08T12:40:28;11.85;;;5.60;;
29358;SDS011;16347;53.232;6.556;2023-09-08T12:42:58;11.50;;;4.40;;
29358;SDS011;16347;53.232;6.556;2023-09-08T12:45:41;9.02;;;4.60;;
29358;SDS011;16347;53.232;6.556;2023-09-08T12:48:09;8.25;;;6.35;;
29358;SDS011;16347;53.232;6.556;2023-09-08T12:50:37;13.20;;;8.52;;
29358;SDS011;16347;53.232;6.556;2023-09-08T12:53:07;9.43;;;7.05;;
29358;SDS011;16347;53.232;6.556;2023-09-08T12:55:35;10.82;;;6.57;;
29358;SDS011;16347;53.232;6.556;2023-09-08T12:58:03;17.10;;;10.48;;
29358;SDS011;16347;53.232;6.556;2023-09-08T13:00:31;14.23;;;6.28;;
29358;SDS011;16347;53.232;6.556;2023-09-08T13:02:59;7.78;;;4.07;;
29358;SDS011;16347;53.232;6.556;2023-09-08T13:05:28;4.32;;;3.30;;
29358;SDS011;16347;53.232;6.556;2023-09-08T13:07:58;5.45;;;4.53;;
29358;SDS011;16347;53.232;6.556;2023-09-08T13:10:27;10.93;;;6.93;;
29358;SDS011;16347;53.232;6.556;2023-09-08T13:12:55;11.80;;;4.68;;
29358;SDS011;16347;53.232;6.556;2023-09-08T13:15:23;5.45;;;4.10;;
29358;SDS011;16347;53.232;6.556;2023-09-08T13:17:51;6.90;;;4.40;;
29358;SDS011;16347;53.232;6.556;2023-09-08T13:20:19;8.27;;;4.18;;
29358;SDS011;16347;53.232;6.556;2023-09-08T13:22:47;15.13;;;4.65;;
29358;SDS011;16347;53.232;6.556;2023-09-08T13:25:15;11.68;;;5.45;;
29358;SDS011;16347;53.232;6.556;2023-09-08T13:27:44;9.82;;;5.38;;
29358;SDS011;16347;53.232;6.556;2023-09-08T13:30:15;7.70;;;5.25;;
29358;SDS011;16347;53.232;6.556;2023-09-08T13:32:44;8.60;;;4.97;;
29358;SDS011;16347;53.232;6.556;2023-09-08T13:35:12;12.23;;;8.68;;
29358;SDS011;16347;53.232;6.556;2023-09-08T13:37:40;12.95;;;7.72;;
29358;SDS011;16347;53.232;6.556;2023-09-08T13:40:09;15.20;;;8.63;;
29358;SDS011;16347;53.232;6.556;2023-09-08T13:42:37;12.18;;;7.10;;
29358;SDS011;16347;53.232;6.556;2023-09-08T13:45:07;10.90;;;4.68;;
29358;SDS011;16347;53.232;6.556;2023-09-08T13:47:35;9.27;;;5.15;;
29358;SDS011;16347;53.232;6.556;2023-09-08T13:50:06;8.07;;;4.15;;
29358;SDS011;16347;53.232;6.556;2023-09-08T13:52:36;7.70;;;4.32;;
29358;SDS011;16347;53.232;6.556;2023-09-08T13:55:06;6.07;;;3.72;;
29358;SDS011;16347;53.232;6.556;2023-09-08T13:57:38;7.38;;;4.07;;
29358;SDS011;16347;53.232;6.556;2023-09-08T14:00:09;13.63;;;4.28;;
29358;SDS011;16347;53.232;6.556;2023-09-08T14:02:42;6.97;;;4.25;;
29358;SDS011;16347;53.232;6.556;2023-09-08T14:05:13;6.15;;;4.78;;
29358;SDS011;16347;53.232;6.556;2023-09-08T14:07:45;6.70;;;3.90;;
29358;SDS011;16347;53.232;6.556;2023-09-08T14:10:27;4.17;;;3.57;;
29358;SDS011;16347;53.232;6.556;2023-09-08T14:13:07;8.27;;;3.83;;
29358;SDS011;16347;53.232;6.556;2023-09-08T14:15:37;7.57;;;3.40;;
29358;SDS011;16347;53.232;6.556;2023-09-08T14:18:05;4.07;;;3.40;;
29358;SDS011;16347;53.232;6.556;2023-09-08T14:20:33;5.35;;;3.72;;
29358;SDS011;16347;53.232;6.556;2023-09-08T14:23:01;5.55;;;3.92;;
29358;SDS011;16347;53.232;6.556;2023-09-08T14:25:29;3.90;;;2.92;;
29358;SDS011;16347;53.232;6.556;2023-09-08T14:27:56;9.10;;;3.72;;
29358;SDS011;16347;53.232;6.556;2023-09-08T14:30:27;4.57;;;3.55;;
29358;SDS011;16347;53.232;6.556;2023-09-08T14:32:56;9.60;;;5.28;;
29358;SDS011;16347;53.232;6.556;2023-09-08T14:35:24;7.05;;;3.50;;
29358;SDS011;16347;53.232;6.556;2023-09-08T14:37:52;5.47;;;3.38;;
29358;SDS011;16347;53.232;6.556;2023-09-08T14:40:21;5.72;;;3.60;;
29358;SDS011;16347;53.232;6.556;2023-09-08T14:42:49;4.45;;;3.70;;
29358;SDS011;16347;53.232;6.556;2023-09-08T14:45:20;8.25;;;3.95;;
29358;SDS011;16347;53.232;6.556;2023-09-08T14:47:48;7.30;;;4.10;;
29358;SDS011;16347;53.232;6.556;2023-09-08T14:50:17;9.60;;;3.88;;